Bergholz, Ohio
Current Conditions -  °F | °C
As of 2:53 AM on Saturday 25 Oct 2014 (Local Time) from KHLG Reporting Station
Overcast Overcast  
Wind Chill: 45°   Ceiling: 4500
Heat Index: 47°   Visibility: 10mi
Dew Point: 40°   Wind: 5mph
Humidity: 77%   Direction: 190°S
Pressure: 30"   Gusts: NA
Location:  40.52°N, 80.88°W
Report Text: KHLG 250653Z AUTO 19004KT 10SM OVC045 08/04 A3000 RMK AO2 SLP161 T00830044
Loading
Personal Weather Stations






























Interactive Weather Map
Tropical Storm Tracking
New forecast layout! Learn more

10-Day Weather Forecast

Advertisements
Track Severe Weather on mobile